sensor_id;sensor_type;location;lat;lon;timestamp;temperature;humidity
18658;DHT22;9458;50.942;5.074;2022-08-19T00:02:17;21.20;99.90
18658;DHT22;9458;50.942;5.074;2022-08-19T00:04:44;21.30;99.90
18658;DHT22;9458;50.942;5.074;2022-08-19T00:07:14;21.20;99.90
18658;DHT22;9458;50.942;5.074;2022-08-19T00:09:41;21.20;99.90
18658;DHT22;9458;50.942;5.074;2022-08-19T00:12:12;21.20;99.90
18658;DHT22;9458;50.942;5.074;2022-08-19T00:14:41;21.20;99.90
18658;DHT22;9458;50.942;5.074;2022-08-19T00:17:12;21.20;99.90
18658;DHT22;9458;50.942;5.074;2022-08-19T00:19:40;21.20;99.90
18658;DHT22;9458;50.942;5.074;2022-08-19T00:22:11;21.10;99.90
18658;DHT22;9458;50.942;5.074;2022-08-19T00:24:45;21.10;99.90
18658;DHT22;9458;50.942;5.074;2022-08-19T00:27:16;21.00;99.90
18658;DHT22;9458;50.942;5.074;2022-08-19T00:29:46;21.00;99.90
18658;DHT22;9458;50.942;5.074;2022-08-19T00:32:15;21.00;99.90
18658;DHT22;9458;50.942;5.074;2022-08-19T00:34:42;21.00;99.90
18658;DHT22;9458;50.942;5.074;2022-08-19T00:37:13;21.00;99.90
18658;DHT22;9458;50.942;5.074;2022-08-19T00:39:42;21.00;99.90
18658;DHT22;9458;50.942;5.074;2022-08-19T00:42:11;21.00;99.90
18658;DHT22;9458;50.942;5.074;2022-08-19T00:44:42;20.90;99.90
18658;DHT22;9458;50.942;5.074;2022-08-19T00:47:11;20.90;99.90
18658;DHT22;9458;50.942;5.074;2022-08-19T00:49:42;20.90;99.90
18658;DHT22;9458;50.942;5.074;2022-08-19T00:52:14;20.90;99.90
18658;DHT22;9458;50.942;5.074;2022-08-19T00:54:43;20.90;99.90
18658;DHT22;9458;50.942;5.074;2022-08-19T00:57:17;20.90;99.90
18658;DHT22;9458;50.942;5.074;2022-08-19T00:59:48;20.90;99.90
18658;DHT22;9458;50.942;5.074;2022-08-19T01:02:24;20.90;99.90
18658;DHT22;9458;50.942;5.074;2022-08-19T01:04:52;20.90;99.90
18658;DHT22;9458;50.942;5.074;2022-08-19T01:07:19;20.90;99.90
18658;DHT22;9458;50.942;5.074;2022-08-19T01:09:47;20.90;99.90
18658;DHT22;9458;50.942;5.074;2022-08-19T01:12:16;20.90;99.90
18658;DHT22;9458;50.942;5.074;2022-08-19T01:14:45;20.90;99.90
18658;DHT22;9458;50.942;5.074;2022-08-19T01:17:16;20.90;99.90
18658;DHT22;9458;50.942;5.074;2022-08-19T01:19:45;20.90;99.90
18658;DHT22;9458;50.942;5.074;2022-08-19T01:22:18;20.90;99.90
18658;DHT22;9458;50.942;5.074;2022-08-19T01:24:49;20.90;99.90
18658;DHT22;9458;50.942;5.074;2022-08-19T01:27:18;20.90;99.90
18658;DHT22;9458;50.942;5.074;2022-08-19T01:29:50;20.90;99.90
18658;DHT22;9458;50.942;5.074;2022-08-19T01:32:20;20.90;99.90
18658;DHT22;9458;50.942;5.074;2022-08-19T01:34:47;20.90;99.90
18658;DHT22;9458;50.942;5.074;2022-08-19T01:37:16;20.90;99.90
18658;DHT22;9458;50.942;5.074;2022-08-19T01:39:44;20.90;99.90
18658;DHT22;9458;50.942;5.074;2022-08-19T01:42:13;20.90;99.90
18658;DHT22;9458;50.942;5.074;2022-08-19T01:44:41;20.80;99.90
18658;DHT22;9458;50.942;5.074;2022-08-19T01:47:09;20.80;99.90
18658;DHT22;9458;50.942;5.074;2022-08-19T01:49:37;20.80;99.90
18658;DHT22;9458;50.942;5.074;2022-08-19T01:52:05;20.70;99.90
18658;DHT22;9458;50.942;5.074;2022-08-19T01:54:33;20.70;99.90
18658;DHT22;9458;50.942;5.074;2022-08-19T01:57:05;20.70;99.90
18658;DHT22;9458;50.942;5.074;2022-08-19T01:59:36;20.70;99.90
18658;DHT22;9458;50.942;5.074;2022-08-19T02:02:05;20.70;99.90
18658;DHT22;9458;50.942;5.074;2022-08-19T02:04:34;20.70;99.90
18658;DHT22;9458;50.942;5.074;2022-08-19T02:07:04;20.70;99.90
18658;DHT22;9458;50.942;5.074;2022-08-19T02:09:32;20.70;99.90
18658;DHT22;9458;50.942;5.074;2022-08-19T02:12:00;20.70;99.90
18658;DHT22;9458;50.942;5.074;2022-08-19T02:14:28;20.70;99.90
18658;DHT22;9458;50.942;5.074;2022-08-19T02:16:57;20.60;99.90
18658;DHT22;9458;50.942;5.074;2022-08-19T02:19:25;20.60;99.90
18658;DHT22;9458;50.942;5.074;2022-08-19T02:21:53;20.60;99.90
18658;DHT22;9458;50.942;5.074;2022-08-19T02:24:21;20.60;99.90
18658;DHT22;9458;50.942;5.074;2022-08-19T02:26:48;20.60;99.90
18658;DHT22;9458;50.942;5.074;2022-08-19T02:29:17;20.60;99.90
18658;DHT22;9458;50.942;5.074;2022-08-19T02:31:44;20.50;99.90
18658;DHT22;9458;50.942;5.074;2022-08-19T02:34:14;20.50;99.90
18658;DHT22;9458;50.942;5.074;2022-08-19T02:36:42;20.50;99.90
18658;DHT22;9458;50.942;5.074;2022-08-19T02:39:11;20.40;99.90
18658;DHT22;9458;50.942;5.074;2022-08-19T02:41:37;20.40;99.90
18658;DHT22;9458;50.942;5.074;2022-08-19T02:44:05;20.40;99.90
18658;DHT22;9458;50.942;5.074;2022-08-19T02:46:33;20.40;99.90
18658;DHT22;9458;50.942;5.074;2022-08-19T02:49:03;20.40;99.90
18658;DHT22;9458;50.942;5.074;2022-08-19T02:51:35;20.40;99.90
18658;DHT22;9458;50.942;5.074;2022-08-19T02:54:04;20.40;99.90
18658;DHT22;9458;50.942;5.074;2022-08-19T02:56:34;20.40;99.90
18658;DHT22;9458;50.942;5.074;2022-08-19T02:59:04;20.40;99.90
18658;DHT22;9458;50.942;5.074;2022-08-19T03:01:39;20.40;99.90
18658;DHT22;9458;50.942;5.074;2022-08-19T03:04:17;20.30;99.90
18658;DHT22;9458;50.942;5.074;2022-08-19T03:06:57;20.30;99.90
18658;DHT22;9458;50.942;5.074;2022-08-19T03:09:37;20.30;99.90
18658;DHT22;9458;50.942;5.074;2022-08-19T03:12:05;20.30;99.90
18658;DHT22;9458;50.942;5.074;2022-08-19T03:14:35;20.30;99.90
18658;DHT22;9458;50.942;5.074;2022-08-19T03:17:06;20.30;99.90
18658;DHT22;9458;50.942;5.074;2022-08-19T03:19:34;20.30;99.90
18658;DHT22;9458;50.942;5.074;2022-08-19T03:22:06;20.30;99.90
18658;DHT22;9458;50.942;5.074;2022-08-19T03:24:36;20.20;99.90
18658;DHT22;9458;50.942;5.074;2022-08-19T03:27:04;20.20;99.90
18658;DHT22;9458;50.942;5.074;2022-08-19T03:29:32;20.20;99.90
18658;DHT22;9458;50.942;5.074;2022-08-19T03:32:02;20.20;99.90
18658;DHT22;9458;50.942;5.074;2022-08-19T03:34:34;20.10;99.90
18658;DHT22;9458;50.942;5.074;2022-08-19T03:37:08;20.10;99.90
18658;DHT22;9458;50.942;5.074;2022-08-19T03:39:41;20.10;99.90
18658;DHT22;9458;50.942;5.074;2022-08-19T03:42:09;20.10;99.90
18658;DHT22;9458;50.942;5.074;2022-08-19T03:44:37;20.10;99.90
18658;DHT22;9458;50.942;5.074;2022-08-19T03:47:05;20.10;99.90
18658;DHT22;9458;50.942;5.074;2022-08-19T03:49:34;20.00;99.90
18658;DHT22;9458;50.942;5.074;2022-08-19T03:52:03;20.00;99.90
18658;DHT22;9458;50.942;5.074;2022-08-19T03:54:36;20.00;99.90
18658;DHT22;9458;50.942;5.074;2022-08-19T03:57:05;20.00;99.90
18658;DHT22;9458;50.942;5.074;2022-08-19T03:59:37;20.00;99.90
18658;DHT22;9458;50.942;5.074;2022-08-19T04:02:11;20.00;99.90
18658;DHT22;9458;50.942;5.074;2022-08-19T04:04:40;20.00;99.90
18658;DHT22;9458;50.942;5.074;2022-08-19T04:07:10;19.90;99.90
18658;DHT22;9458;50.942;5.074;2022-08-19T04:09:40;19.90;99.90
18658;DHT22;9458;50.942;5.074;2022-08-19T04:12:11;19.90;99.90
18658;DHT22;9458;50.942;5.074;2022-08-19T04:14:43;19.90;99.90
18658;DHT22;9458;50.942;5.074;2022-08-19T04:17:12;19.90;99.90
18658;DHT22;9458;50.942;5.074;2022-08-19T04:19:40;19.80;99.90
18658;DHT22;9458;50.942;5.074;2022-08-19T04:22:09;19.80;99.90
18658;DHT22;9458;50.942;5.074;2022-08-19T04:24:40;19.80;99.90
18658;DHT22;9458;50.942;5.074;2022-08-19T04:27:09;19.80;99.90
18658;DHT22;9458;50.942;5.074;2022-08-19T04:29:37;19.80;99.90
18658;DHT22;9458;50.942;5.074;2022-08-19T04:32:05;19.70;99.90
18658;DHT22;9458;50.942;5.074;2022-08-19T04:34:33;19.80;99.90
18658;DHT22;9458;50.942;5.074;2022-08-19T04:37:01;19.70;99.90
18658;DHT22;9458;50.942;5.074;2022-08-19T04:39:34;19.70;99.90
18658;DHT22;9458;50.942;5.074;2022-08-19T04:42:21;19.70;99.90
18658;DHT22;9458;50.942;5.074;2022-08-19T04:45:09;19.70;99.90
18658;DHT22;9458;50.942;5.074;2022-08-19T04:47:40;19.70;99.90
18658;DHT22;9458;50.942;5.074;2022-08-19T04:50:09;19.70;99.90
18658;DHT22;9458;50.942;5.074;2022-08-19T04:52:38;19.60;99.90
18658;DHT22;9458;50.942;5.074;2022-08-19T04:55:09;19.60;99.90
18658;DHT22;9458;50.942;5.074;2022-08-19T04:57:39;19.70;99.90
18658;DHT22;9458;50.942;5.074;2022-08-19T05:00:08;19.70;99.90
18658;DHT22;9458;50.942;5.074;2022-08-19T05:02:36;19.70;99.90
18658;DHT22;9458;50.942;5.074;2022-08-19T05:05:04;19.70;99.90
18658;DHT22;9458;50.942;5.074;2022-08-19T05:07:32;19.70;99.90
18658;DHT22;9458;50.942;5.074;2022-08-19T05:10:00;19.70;99.90
18658;DHT22;9458;50.942;5.074;2022-08-19T05:12:30;19.80;99.90
18658;DHT22;9458;50.942;5.074;2022-08-19T05:15:02;19.70;99.90
18658;DHT22;9458;50.942;5.074;2022-08-19T05:17:30;19.80;99.90
18658;DHT22;9458;50.942;5.074;2022-08-19T05:19:58;19.80;99.90
18658;DHT22;9458;50.942;5.074;2022-08-19T05:22:45;19.80;99.90
18658;DHT22;9458;50.942;5.074;2022-08-19T05:25:15;19.80;99.90
18658;DHT22;9458;50.942;5.074;2022-08-19T05:27:44;19.90;99.90
18658;DHT22;9458;50.942;5.074;2022-08-19T05:30:14;19.90;99.90
18658;DHT22;9458;50.942;5.074;2022-08-19T05:32:44;20.00;99.90
18658;DHT22;9458;50.942;5.074;2022-08-19T05:35:11;20.10;99.90
18658;DHT22;9458;50.942;5.074;2022-08-19T05:37:39;20.20;99.90
18658;DHT22;9458;50.942;5.074;2022-08-19T05:40:08;20.40;99.90
18658;DHT22;9458;50.942;5.074;2022-08-19T05:42:36;20.50;99.90
18658;DHT22;9458;50.942;5.074;2022-08-19T05:45:05;20.50;99.90
18658;DHT22;9458;50.942;5.074;2022-08-19T05:47:35;20.70;99.90
18658;DHT22;9458;50.942;5.074;2022-08-19T05:50:04;20.70;99.90
18658;DHT22;9458;50.942;5.074;2022-08-19T05:52:32;20.80;99.90
18658;DHT22;9458;50.942;5.074;2022-08-19T05:55:04;20.90;99.90
18658;DHT22;9458;50.942;5.074;2022-08-19T05:57:32;21.00;99.90
18658;DHT22;9458;50.942;5.074;2022-08-19T06:00:01;21.10;99.90
18658;DHT22;9458;50.942;5.074;2022-08-19T06:02:35;21.20;99.90
18658;DHT22;9458;50.942;5.074;2022-08-19T06:05:04;21.30;99.90
18658;DHT22;9458;50.942;5.074;2022-08-19T06:07:39;21.40;99.90
18658;DHT22;9458;50.942;5.074;2022-08-19T06:10:09;21.50;99.90
18658;DHT22;9458;50.942;5.074;2022-08-19T06:12:37;21.70;99.90
18658;DHT22;9458;50.942;5.074;2022-08-19T06:15:07;21.90;99.90
18658;DHT22;9458;50.942;5.074;2022-08-19T06:17:38;22.10;99.90
18658;DHT22;9458;50.942;5.074;2022-08-19T06:20:11;22.40;99.90
18658;DHT22;9458;50.942;5.074;2022-08-19T06:22:41;22.60;99.90
18658;DHT22;9458;50.942;5.074;2022-08-19T06:25:10;22.90;99.90
18658;DHT22;9458;50.942;5.074;2022-08-19T06:27:38;23.20;99.90
18658;DHT22;9458;50.942;5.074;2022-08-19T06:30:07;23.60;99.90
18658;DHT22;9458;50.942;5.074;2022-08-19T06:32:37;23.90;99.90
18658;DHT22;9458;50.942;5.074;2022-08-19T06:35:07;24.10;99.90
18658;DHT22;9458;50.942;5.074;2022-08-19T06:37:37;24.50;99.90
18658;DHT22;9458;50.942;5.074;2022-08-19T06:40:07;24.70;99.90
18658;DHT22;9458;50.942;5.074;2022-08-19T06:42:36;24.70;99.90
18658;DHT22;9458;50.942;5.074;2022-08-19T06:45:05;24.70;99.90
18658;DHT22;9458;50.942;5.074;2022-08-19T06:47:34;24.60;99.90
18658;DHT22;9458;50.942;5.074;2022-08-19T06:50:04;24.60;99.90
18658;DHT22;9458;50.942;5.074;2022-08-19T06:52:34;25.00;99.90
18658;DHT22;9458;50.942;5.074;2022-08-19T06:55:03;25.60;99.90
18658;DHT22;9458;50.942;5.074;2022-08-19T06:57:34;26.10;99.90
18658;DHT22;9458;50.942;5.074;2022-08-19T07:00:05;26.50;99.90
18658;DHT22;9458;50.942;5.074;2022-08-19T07:02:37;26.70;99.90
18658;DHT22;9458;50.942;5.074;2022-08-19T07:05:08;26.90;99.90
18658;DHT22;9458;50.942;5.074;2022-08-19T07:07:44;27.00;99.90
18658;DHT22;9458;50.942;5.074;2022-08-19T07:10:12;26.90;99.90
18658;DHT22;9458;50.942;5.074;2022-08-19T07:12:43;26.70;99.90
18658;DHT22;9458;50.942;5.074;2022-08-19T07:15:14;26.70;99.90
18658;DHT22;9458;50.942;5.074;2022-08-19T07:17:43;26.40;99.90
18658;DHT22;9458;50.942;5.074;2022-08-19T07:20:16;26.00;99.90
18658;DHT22;9458;50.942;5.074;2022-08-19T07:22:44;25.60;99.90
18658;DHT22;9458;50.942;5.074;2022-08-19T07:25:13;25.20;99.90
18658;DHT22;9458;50.942;5.074;2022-08-19T07:27:41;25.00;99.90
18658;DHT22;9458;50.942;5.074;2022-08-19T07:30:10;24.70;99.90
18658;DHT22;9458;50.942;5.074;2022-08-19T07:32:39;24.50;99.90
18658;DHT22;9458;50.942;5.074;2022-08-19T07:35:10;24.30;99.90
18658;DHT22;9458;50.942;5.074;2022-08-19T07:37:41;24.10;99.90
18658;DHT22;9458;50.942;5.074;2022-08-19T07:40:10;24.00;99.90
18658;DHT22;9458;50.942;5.074;2022-08-19T07:42:39;23.80;99.90
18658;DHT22;9458;50.942;5.074;2022-08-19T07:45:09;23.70;99.90
18658;DHT22;9458;50.942;5.074;2022-08-19T07:47:37;23.70;99.90
18658;DHT22;9458;50.942;5.074;2022-08-19T07:50:08;23.70;99.90
18658;DHT22;9458;50.942;5.074;2022-08-19T07:52:38;23.60;99.90
18658;DHT22;9458;50.942;5.074;2022-08-19T07:55:10;23.70;99.90
18658;DHT22;9458;50.942;5.074;2022-08-19T07:57:38;23.80;99.90
18658;DHT22;9458;50.942;5.074;2022-08-19T08:00:07;23.80;99.90
18658;DHT22;9458;50.942;5.074;2022-08-19T08:02:35;23.80;99.90
18658;DHT22;9458;50.942;5.074;2022-08-19T08:05:05;23.80;99.90
18658;DHT22;9458;50.942;5.074;2022-08-19T08:07:50;23.70;99.90
18658;DHT22;9458;50.942;5.074;2022-08-19T08:10:33;23.70;99.90
18658;DHT22;9458;50.942;5.074;2022-08-19T08:13:11;23.80;99.90
18658;DHT22;9458;50.942;5.074;2022-08-19T08:15:39;24.10;99.90
18658;DHT22;9458;50.942;5.074;2022-08-19T08:18:07;24.40;99.90
18658;DHT22;9458;50.942;5.074;2022-08-19T08:20:35;25.40;99.90
18658;DHT22;9458;50.942;5.074;2022-08-19T08:23:05;26.60;99.90
18658;DHT22;9458;50.942;5.074;2022-08-19T08:25:55;27.40;99.90
18658;DHT22;9458;50.942;5.074;2022-08-19T08:28:27;27.70;99.90
18658;DHT22;9458;50.942;5.074;2022-08-19T08:30:56;27.70;99.90
18658;DHT22;9458;50.942;5.074;2022-08-19T08:33:27;27.80;99.90
18658;DHT22;9458;50.942;5.074;2022-08-19T08:35:55;27.60;99.90
18658;DHT22;9458;50.942;5.074;2022-08-19T08:38:27;28.00;99.90
18658;DHT22;9458;50.942;5.074;2022-08-19T08:41:03;28.30;99.90
18658;DHT22;9458;50.942;5.074;2022-08-19T08:43:35;28.30;99.90
18658;DHT22;9458;50.942;5.074;2022-08-19T08:46:12;28.00;99.90
18658;DHT22;9458;50.942;5.074;2022-08-19T08:48:46;27.80;99.90
18658;DHT22;9458;50.942;5.074;2022-08-19T08:51:20;27.70;99.90
18658;DHT22;9458;50.942;5.074;2022-08-19T08:53:53;27.80;99.90
18658;DHT22;9458;50.942;5.074;2022-08-19T08:56:25;28.20;99.90
18658;DHT22;9458;50.942;5.074;2022-08-19T08:58:59;28.20;99.90
18658;DHT22;9458;50.942;5.074;2022-08-19T09:01:33;28.00;99.90
18658;DHT22;9458;50.942;5.074;2022-08-19T09:04:03;28.20;99.90
18658;DHT22;9458;50.942;5.074;2022-08-19T09:06:38;28.30;99.90
18658;DHT22;9458;50.942;5.074;2022-08-19T09:09:18;28.30;99.90
18658;DHT22;9458;50.942;5.074;2022-08-19T09:11:57;28.80;99.90
18658;DHT22;9458;50.942;5.074;2022-08-19T09:14:38;29.90;99.90
18658;DHT22;9458;50.942;5.074;2022-08-19T09:17:29;31.10;99.90
18658;DHT22;9458;50.942;5.074;2022-08-19T09:20:05;32.10;99.90
18658;DHT22;9458;50.942;5.074;2022-08-19T09:23:29;33.00;99.90
18658;DHT22;9458;50.942;5.074;2022-08-19T09:26:19;33.30;98.60
18658;DHT22;9458;50.942;5.074;2022-08-19T09:29:15;32.50;98.00
18658;DHT22;9458;50.942;5.074;2022-08-19T09:31:59;31.70;97.80
18658;DHT22;9458;50.942;5.074;2022-08-19T09:34:42;30.90;98.00
18658;DHT22;9458;50.942;5.074;2022-08-19T09:37:15;30.40;98.60
18658;DHT22;9458;50.942;5.074;2022-08-19T09:39:50;29.90;99.00
18658;DHT22;9458;50.942;5.074;2022-08-19T09:42:28;29.70;99.10
18658;DHT22;9458;50.942;5.074;2022-08-19T09:48:04;30.10;99.10
18658;DHT22;9458;50.942;5.074;2022-08-19T09:50:32;29.80;98.50
18658;DHT22;9458;50.942;5.074;2022-08-19T09:53:14;29.40;98.70
18658;DHT22;9458;50.942;5.074;2022-08-19T09:55:44;29.00;99.20
18658;DHT22;9458;50.942;5.074;2022-08-19T09:58:12;28.70;99.80
18658;DHT22;9458;50.942;5.074;2022-08-19T10:00:42;28.40;99.90
18658;DHT22;9458;50.942;5.074;2022-08-19T10:03:15;28.30;99.90
18658;DHT22;9458;50.942;5.074;2022-08-19T10:05:52;28.20;99.90
18658;DHT22;9458;50.942;5.074;2022-08-19T10:08:24;28.10;99.90
18658;DHT22;9458;50.942;5.074;2022-08-19T10:10:54;28.10;99.90
18658;DHT22;9458;50.942;5.074;2022-08-19T10:13:30;28.20;99.90
18658;DHT22;9458;50.942;5.074;2022-08-19T10:16:03;28.20;99.90
18658;DHT22;9458;50.942;5.074;2022-08-19T10:18:33;28.20;99.90
18658;DHT22;9458;50.942;5.074;2022-08-19T10:21:07;28.10;99.90
18658;DHT22;9458;50.942;5.074;2022-08-19T10:23:36;28.00;99.90
18658;DHT22;9458;50.942;5.074;2022-08-19T10:26:05;27.80;99.90
18658;DHT22;9458;50.942;5.074;2022-08-19T10:28:34;27.60;99.90
18658;DHT22;9458;50.942;5.074;2022-08-19T10:31:26;27.60;99.90
18658;DHT22;9458;50.942;5.074;2022-08-19T10:33:56;27.50;99.90
18658;DHT22;9458;50.942;5.074;2022-08-19T10:36:26;27.60;99.90
18658;DHT22;9458;50.942;5.074;2022-08-19T10:38:55;27.70;99.90
18658;DHT22;9458;50.942;5.074;2022-08-19T10:41:28;27.90;99.90
18658;DHT22;9458;50.942;5.074;2022-08-19T10:43:58;28.00;99.90
18658;DHT22;9458;50.942;5.074;2022-08-19T10:46:27;28.10;99.90
18658;DHT22;9458;50.942;5.074;2022-08-19T10:48:59;28.00;99.90
18658;DHT22;9458;50.942;5.074;2022-08-19T10:51:29;28.00;99.90
18658;DHT22;9458;50.942;5.074;2022-08-19T10:54:14;28.10;99.90
18658;DHT22;9458;50.942;5.074;2022-08-19T10:56:41;28.00;99.90
18658;DHT22;9458;50.942;5.074;2022-08-19T10:59:18;28.10;99.90
18658;DHT22;9458;50.942;5.074;2022-08-19T11:01:48;28.20;99.90
18658;DHT22;9458;50.942;5.074;2022-08-19T11:04:18;28.30;99.90
18658;DHT22;9458;50.942;5.074;2022-08-19T11:06:46;28.40;99.90
18658;DHT22;9458;50.942;5.074;2022-08-19T11:09:15;28.40;99.90
18658;DHT22;9458;50.942;5.074;2022-08-19T11:11:43;28.40;99.90
18658;DHT22;9458;50.942;5.074;2022-08-19T11:14:14;28.40;99.90
18658;DHT22;9458;50.942;5.074;2022-08-19T11:16:44;28.30;99.90
18658;DHT22;9458;50.942;5.074;2022-08-19T11:19:12;28.20;99.90
18658;DHT22;9458;50.942;5.074;2022-08-19T11:21:46;28.10;99.90
18658;DHT22;9458;50.942;5.074;2022-08-19T11:24:16;28.10;99.90
18658;DHT22;9458;50.942;5.074;2022-08-19T11:26:47;28.10;99.90
18658;DHT22;9458;50.942;5.074;2022-08-19T11:29:17;28.00;99.90
18658;DHT22;9458;50.942;5.074;2022-08-19T11:31:46;28.00;99.90
18658;DHT22;9458;50.942;5.074;2022-08-19T11:34:17;27.90;99.90
18658;DHT22;9458;50.942;5.074;2022-08-19T11:36:48;27.90;99.90
18658;DHT22;9458;50.942;5.074;2022-08-19T11:39:19;27.80;99.90
18658;DHT22;9458;50.942;5.074;2022-08-19T11:41:47;27.80;99.90
18658;DHT22;9458;50.942;5.074;2022-08-19T11:44:15;27.80;99.90
18658;DHT22;9458;50.942;5.074;2022-08-19T11:46:44;27.80;99.90
18658;DHT22;9458;50.942;5.074;2022-08-19T11:49:12;27.80;99.90
18658;DHT22;9458;50.942;5.074;2022-08-19T11:51:40;27.80;99.90
18658;DHT22;9458;50.942;5.074;2022-08-19T11:54:11;27.70;99.90
18658;DHT22;9458;50.942;5.074;2022-08-19T11:56:40;27.80;99.90
18658;DHT22;9458;50.942;5.074;2022-08-19T11:59:09;27.80;99.90
18658;DHT22;9458;50.942;5.074;2022-08-19T12:01:36;27.90;99.90
18658;DHT22;9458;50.942;5.074;2022-08-19T12:04:06;27.90;99.90
18658;DHT22;9458;50.942;5.074;2022-08-19T12:06:36;27.80;99.90
18658;DHT22;9458;50.942;5.074;2022-08-19T12:09:06;27.80;99.90
18658;DHT22;9458;50.942;5.074;2022-08-19T12:11:36;27.70;99.90
18658;DHT22;9458;50.942;5.074;2022-08-19T12:14:06;27.80;99.90
18658;DHT22;9458;50.942;5.074;2022-08-19T12:16:34;27.70;99.90
18658;DHT22;9458;50.942;5.074;2022-08-19T12:19:04;27.60;99.90
18658;DHT22;9458;50.942;5.074;2022-08-19T12:21:34;27.70;99.90
18658;DHT22;9458;50.942;5.074;2022-08-19T12:24:03;27.70;99.90
18658;DHT22;9458;50.942;5.074;2022-08-19T12:26:31;27.70;99.90
18658;DHT22;9458;50.942;5.074;2022-08-19T12:29:00;27.70;99.90
18658;DHT22;9458;50.942;5.074;2022-08-19T12:31:28;27.60;99.90
18658;DHT22;9458;50.942;5.074;2022-08-19T12:33:57;27.60;99.90
18658;DHT22;9458;50.942;5.074;2022-08-19T12:36:25;27.50;99.90
18658;DHT22;9458;50.942;5.074;2022-08-19T12:38:52;27.50;99.90
18658;DHT22;9458;50.942;5.074;2022-08-19T12:41:20;27.40;99.90
18658;DHT22;9458;50.942;5.074;2022-08-19T12:43:48;27.20;99.90
18658;DHT22;9458;50.942;5.074;2022-08-19T12:46:19;27.10;99.90
18658;DHT22;9458;50.942;5.074;2022-08-19T12:48:46;27.10;99.90
18658;DHT22;9458;50.942;5.074;2022-08-19T12:51:16;27.00;99.90
18658;DHT22;9458;50.942;5.074;2022-08-19T12:53:44;26.90;99.90
18658;DHT22;9458;50.942;5.074;2022-08-19T12:56:12;26.90;99.90
18658;DHT22;9458;50.942;5.074;2022-08-19T12:58:41;26.90;99.90
18658;DHT22;9458;50.942;5.074;2022-08-19T13:01:11;26.90;99.90
18658;DHT22;9458;50.942;5.074;2022-08-19T13:03:40;26.90;99.90
18658;DHT22;9458;50.942;5.074;2022-08-19T13:06:09;26.90;99.90
18658;DHT22;9458;50.942;5.074;2022-08-19T13:08:36;26.80;99.90
18658;DHT22;9458;50.942;5.074;2022-08-19T13:11:09;26.80;99.90
18658;DHT22;9458;50.942;5.074;2022-08-19T13:13:38;26.80;99.90
18658;DHT22;9458;50.942;5.074;2022-08-19T13:16:08;26.80;99.90
18658;DHT22;9458;50.942;5.074;2022-08-19T13:18:36;26.70;99.90
18658;DHT22;9458;50.942;5.074;2022-08-19T13:21:07;26.80;99.90
18658;DHT22;9458;50.942;5.074;2022-08-19T13:23:37;26.80;99.90
18658;DHT22;9458;50.942;5.074;2022-08-19T13:26:06;26.90;99.90
18658;DHT22;9458;50.942;5.074;2022-08-19T13:28:40;26.90;99.90
18658;DHT22;9458;50.942;5.074;2022-08-19T13:31:26;26.90;99.90
18658;DHT22;9458;50.942;5.074;2022-08-19T13:34:12;26.90;99.90
18658;DHT22;9458;50.942;5.074;2022-08-19T13:36:44;27.00;99.90
18658;DHT22;9458;50.942;5.074;2022-08-19T13:39:12;27.00;99.90
18658;DHT22;9458;50.942;5.074;2022-08-19T13:41:44;27.00;99.90
18658;DHT22;9458;50.942;5.074;2022-08-19T13:44:14;27.00;99.90
18658;DHT22;9458;50.942;5.074;2022-08-19T13:46:45;26.90;99.90
18658;DHT22;9458;50.942;5.074;2022-08-19T13:49:14;26.90;99.90
18658;DHT22;9458;50.942;5.074;2022-08-19T13:51:44;26.90;99.90
18658;DHT22;9458;50.942;5.074;2022-08-19T13:54:12;26.90;99.90
18658;DHT22;9458;50.942;5.074;2022-08-19T13:56:41;27.00;99.90
18658;DHT22;9458;50.942;5.074;2022-08-19T13:59:08;27.00;99.90
18658;DHT22;9458;50.942;5.074;2022-08-19T14:01:36;27.10;99.90
18658;DHT22;9458;50.942;5.074;2022-08-19T14:04:04;27.10;99.90
18658;DHT22;9458;50.942;5.074;2022-08-19T14:06:32;27.10;99.90
18658;DHT22;9458;50.942;5.074;2022-08-19T14:09:01;27.10;99.90
18658;DHT22;9458;50.942;5.074;2022-08-19T14:11:29;27.10;99.90
18658;DHT22;9458;50.942;5.074;2022-08-19T14:13:56;27.10;99.90
18658;DHT22;9458;50.942;5.074;2022-08-19T14:16:24;27.00;99.90
18658;DHT22;9458;50.942;5.074;2022-08-19T14:18:53;26.90;99.90
18658;DHT22;9458;50.942;5.074;2022-08-19T14:21:22;26.90;99.90
18658;DHT22;9458;50.942;5.074;2022-08-19T14:23:51;26.80;99.90
18658;DHT22;9458;50.942;5.074;2022-08-19T14:26:21;26.70;99.90
18658;DHT22;9458;50.942;5.074;2022-08-19T14:28:49;26.70;99.90
18658;DHT22;9458;50.942;5.074;2022-08-19T14:31:18;26.80;99.90
18658;DHT22;9458;50.942;5.074;2022-08-19T14:33:50;26.80;99.90
18658;DHT22;9458;50.942;5.074;2022-08-19T14:36:17;26.80;99.90
18658;DHT22;9458;50.942;5.074;2022-08-19T14:38:46;26.80;99.90
18658;DHT22;9458;50.942;5.074;2022-08-19T14:41:16;26.70;99.90
18658;DHT22;9458;50.942;5.074;2022-08-19T14:43:48;26.70;99.90
18658;DHT22;9458;50.942;5.074;2022-08-19T14:46:18;26.60;99.90
18658;DHT22;9458;50.942;5.074;2022-08-19T14:48:47;26.60;99.90
18658;DHT22;9458;50.942;5.074;2022-08-19T14:51:16;26.60;99.90
18658;DHT22;9458;50.942;5.074;2022-08-19T14:53:45;26.60;99.90
18658;DHT22;9458;50.942;5.074;2022-08-19T14:56:16;26.60;99.90
18658;DHT22;9458;50.942;5.074;2022-08-19T14:58:47;26.70;99.90
18658;DHT22;9458;50.942;5.074;2022-08-19T15:01:17;26.70;99.90
18658;DHT22;9458;50.942;5.074;2022-08-19T15:03:46;26.60;99.90
18658;DHT22;9458;50.942;5.074;2022-08-19T15:06:14;26.60;99.90
18658;DHT22;9458;50.942;5.074;2022-08-19T15:08:43;26.60;99.90
18658;DHT22;9458;50.942;5.074;2022-08-19T15:11:12;26.60;99.90
18658;DHT22;9458;50.942;5.074;2022-08-19T15:13:42;26.50;99.90
18658;DHT22;9458;50.942;5.074;2022-08-19T15:16:12;26.50;99.90
18658;DHT22;9458;50.942;5.074;2022-08-19T15:18:41;26.50;99.90
18658;DHT22;9458;50.942;5.074;2022-08-19T15:21:10;26.50;99.90
18658;DHT22;9458;50.942;5.074;2022-08-19T15:23:39;26.40;99.90
18658;DHT22;9458;50.942;5.074;2022-08-19T15:26:07;26.30;99.90
18658;DHT22;9458;50.942;5.074;2022-08-19T15:28:36;26.30;99.90
18658;DHT22;9458;50.942;5.074;2022-08-19T15:31:04;26.30;99.90
18658;DHT22;9458;50.942;5.074;2022-08-19T15:33:34;26.20;99.90
18658;DHT22;9458;50.942;5.074;2022-08-19T15:36:03;26.20;99.90
18658;DHT22;9458;50.942;5.074;2022-08-19T15:38:31;26.20;99.90
18658;DHT22;9458;50.942;5.074;2022-08-19T15:41:00;26.30;99.90
18658;DHT22;9458;50.942;5.074;2022-08-19T15:43:42;26.30;99.90
18658;DHT22;9458;50.942;5.074;2022-08-19T15:46:10;26.30;99.90
18658;DHT22;9458;50.942;5.074;2022-08-19T15:48:39;26.30;99.90
18658;DHT22;9458;50.942;5.074;2022-08-19T15:51:06;26.30;99.90
18658;DHT22;9458;50.942;5.074;2022-08-19T15:53:34;26.30;99.90
18658;DHT22;9458;50.942;5.074;2022-08-19T15:56:02;26.20;99.90
18658;DHT22;9458;50.942;5.074;2022-08-19T15:58:30;26.20;99.90
18658;DHT22;9458;50.942;5.074;2022-08-19T16:01:14;26.10;99.90
18658;DHT22;9458;50.942;5.074;2022-08-19T16:04:09;26.10;99.90
18658;DHT22;9458;50.942;5.074;2022-08-19T16:06:55;26.10;99.90
18658;DHT22;9458;50.942;5.074;2022-08-19T16:09:25;26.10;99.90
18658;DHT22;9458;50.942;5.074;2022-08-19T16:11:55;26.10;99.90